sensor_id;sensor_type;location;lat;lon;timestamp;temperature;humidity
65536;DHT22;52145;49.342;9.116;2022-07-23T00:00:00;23.50;98.60
65536;DHT22;52145;49.342;9.116;2022-07-23T00:02:26;23.50;98.60
65536;DHT22;52145;49.342;9.116;2022-07-23T00:04:51;23.50;98.60
65536;DHT22;52145;49.342;9.116;2022-07-23T00:07:17;23.60;98.50
65536;DHT22;52145;49.342;9.116;2022-07-23T00:09:42;23.60;98.80
65536;DHT22;52145;49.342;9.116;2022-07-23T00:12:08;23.40;98.70
65536;DHT22;52145;49.342;9.116;2022-07-23T00:14:34;23.40;98.90
65536;DHT22;52145;49.342;9.116;2022-07-23T00:16:59;23.40;99.00
65536;DHT22;52145;49.342;9.116;2022-07-23T00:19:25;23.40;99.00
65536;DHT22;52145;49.342;9.116;2022-07-23T00:21:51;23.40;99.00
65536;DHT22;52145;49.342;9.116;2022-07-23T00:24:16;23.10;99.40
65536;DHT22;52145;49.342;9.116;2022-07-23T00:26:42;23.10;99.60
65536;DHT22;52145;49.342;9.116;2022-07-23T00:29:07;23.00;99.90
65536;DHT22;52145;49.342;9.116;2022-07-23T00:31:33;23.00;99.90
65536;DHT22;52145;49.342;9.116;2022-07-23T00:33:58;23.00;99.90
65536;DHT22;52145;49.342;9.116;2022-07-23T00:36:27;22.90;99.90
65536;DHT22;52145;49.342;9.116;2022-07-23T00:38:53;22.90;99.90
65536;DHT22;52145;49.342;9.116;2022-07-23T00:41:19;23.00;99.90
65536;DHT22;52145;49.342;9.116;2022-07-23T00:43:44;23.00;99.90
65536;DHT22;52145;49.342;9.116;2022-07-23T00:46:10;23.00;99.90
65536;DHT22;52145;49.342;9.116;2022-07-23T00:48:35;22.90;99.90
65536;DHT22;52145;49.342;9.116;2022-07-23T00:51:01;22.90;99.90
65536;DHT22;52145;49.342;9.116;2022-07-23T00:53:27;22.80;99.90
65536;DHT22;52145;49.342;9.116;2022-07-23T00:55:53;22.80;99.90
65536;DHT22;52145;49.342;9.116;2022-07-23T00:58:19;22.80;99.90
65536;DHT22;52145;49.342;9.116;2022-07-23T01:00:45;22.70;99.90
65536;DHT22;52145;49.342;9.116;2022-07-23T01:03:11;22.70;99.90
65536;DHT22;52145;49.342;9.116;2022-07-23T01:05:37;22.70;99.90
65536;DHT22;52145;49.342;9.116;2022-07-23T01:08:03;22.60;99.90
65536;DHT22;52145;49.342;9.116;2022-07-23T01:10:28;22.50;99.90
65536;DHT22;52145;49.342;9.116;2022-07-23T01:13:02;22.40;99.90
65536;DHT22;52145;49.342;9.116;2022-07-23T01:15:28;22.50;99.90
65536;DHT22;52145;49.342;9.116;2022-07-23T01:17:54;22.50;99.90
65536;DHT22;52145;49.342;9.116;2022-07-23T01:20:20;22.40;99.90
65536;DHT22;52145;49.342;9.116;2022-07-23T01:22:46;22.30;99.90
65536;DHT22;52145;49.342;9.116;2022-07-23T01:25:12;22.30;99.90
65536;DHT22;52145;49.342;9.116;2022-07-23T01:27:38;22.40;99.90
65536;DHT22;52145;49.342;9.116;2022-07-23T01:30:05;22.40;99.90
65536;DHT22;52145;49.342;9.116;2022-07-23T01:32:31;22.30;99.90
65536;DHT22;52145;49.342;9.116;2022-07-23T01:34:56;22.20;99.90
65536;DHT22;52145;49.342;9.116;2022-07-23T01:37:22;22.00;99.90
65536;DHT22;52145;49.342;9.116;2022-07-23T01:39:47;22.00;99.90
65536;DHT22;52145;49.342;9.116;2022-07-23T01:42:13;22.10;99.90
65536;DHT22;52145;49.342;9.116;2022-07-23T01:44:38;22.10;99.90
65536;DHT22;52145;49.342;9.116;2022-07-23T01:47:04;22.00;99.90
65536;DHT22;52145;49.342;9.116;2022-07-23T01:49:30;22.00;99.90
65536;DHT22;52145;49.342;9.116;2022-07-23T01:51:55;22.00;99.90
65536;DHT22;52145;49.342;9.116;2022-07-23T01:54:28;21.90;99.90
65536;DHT22;52145;49.342;9.116;2022-07-23T01:56:54;21.90;99.90
65536;DHT22;52145;49.342;9.116;2022-07-23T01:59:19;21.80;99.90
65536;DHT22;52145;49.342;9.116;2022-07-23T02:01:45;21.80;99.90
65536;DHT22;52145;49.342;9.116;2022-07-23T02:04:11;21.70;99.90
65536;DHT22;52145;49.342;9.116;2022-07-23T02:06:36;21.70;99.90
65536;DHT22;52145;49.342;9.116;2022-07-23T02:09:02;21.70;99.90
65536;DHT22;52145;49.342;9.116;2022-07-23T02:11:27;21.60;99.90
65536;DHT22;52145;49.342;9.116;2022-07-23T02:13:53;21.60;99.90
65536;DHT22;52145;49.342;9.116;2022-07-23T02:16:19;21.60;99.90
65536;DHT22;52145;49.342;9.116;2022-07-23T02:18:44;21.40;99.90
65536;DHT22;52145;49.342;9.116;2022-07-23T02:21:11;21.50;99.90
65536;DHT22;52145;49.342;9.116;2022-07-23T02:23:37;21.50;99.90
65536;DHT22;52145;49.342;9.116;2022-07-23T02:26:02;21.50;99.90
65536;DHT22;52145;49.342;9.116;2022-07-23T02:28:28;21.50;99.90
65536;DHT22;52145;49.342;9.116;2022-07-23T02:30:53;21.50;99.90
65536;DHT22;52145;49.342;9.116;2022-07-23T02:33:19;21.40;99.90
65536;DHT22;52145;49.342;9.116;2022-07-23T02:35:44;21.20;99.90
65536;DHT22;52145;49.342;9.116;2022-07-23T02:38:10;21.20;99.90
65536;DHT22;52145;49.342;9.116;2022-07-23T02:40:35;21.30;99.90
65536;DHT22;52145;49.342;9.116;2022-07-23T02:43:01;21.20;99.90
65536;DHT22;52145;49.342;9.116;2022-07-23T02:45:26;21.20;99.90
65536;DHT22;52145;49.342;9.116;2022-07-23T02:47:52;21.20;99.90
65536;DHT22;52145;49.342;9.116;2022-07-23T02:50:17;21.10;99.90
65536;DHT22;52145;49.342;9.116;2022-07-23T02:52:43;21.10;99.90
65536;DHT22;52145;49.342;9.116;2022-07-23T02:55:09;21.00;99.90
65536;DHT22;52145;49.342;9.116;2022-07-23T02:57:34;21.00;99.90
65536;DHT22;52145;49.342;9.116;2022-07-23T03:00:00;21.10;99.90
65536;DHT22;52145;49.342;9.116;2022-07-23T03:02:25;21.00;99.90
65536;DHT22;52145;49.342;9.116;2022-07-23T03:04:51;21.00;99.90
65536;DHT22;52145;49.342;9.116;2022-07-23T03:07:17;21.00;99.90
65536;DHT22;52145;49.342;9.116;2022-07-23T03:09:43;21.20;99.90
65536;DHT22;52145;49.342;9.116;2022-07-23T03:12:09;21.10;99.90
65536;DHT22;52145;49.342;9.116;2022-07-23T03:14:34;21.10;99.90
65536;DHT22;52145;49.342;9.116;2022-07-23T03:17:00;21.10;99.90
65536;DHT22;52145;49.342;9.116;2022-07-23T03:19:26;21.20;99.90
65536;DHT22;52145;49.342;9.116;2022-07-23T03:21:51;21.20;99.90
65536;DHT22;52145;49.342;9.116;2022-07-23T03:24:17;21.20;99.90
65536;DHT22;52145;49.342;9.116;2022-07-23T03:26:43;21.30;99.90
65536;DHT22;52145;49.342;9.116;2022-07-23T03:29:10;21.20;99.90
65536;DHT22;52145;49.342;9.116;2022-07-23T03:31:35;21.20;99.90
65536;DHT22;52145;49.342;9.116;2022-07-23T03:34:01;21.30;99.90
65536;DHT22;52145;49.342;9.116;2022-07-23T03:36:27;21.30;99.90
65536;DHT22;52145;49.342;9.116;2022-07-23T03:38:53;21.20;99.90
65536;DHT22;52145;49.342;9.116;2022-07-23T03:41:19;21.20;99.90
65536;DHT22;52145;49.342;9.116;2022-07-23T03:43:45;21.20;99.90
65536;DHT22;52145;49.342;9.116;2022-07-23T03:46:10;21.20;99.90
65536;DHT22;52145;49.342;9.116;2022-07-23T03:48:36;21.30;99.90
65536;DHT22;52145;49.342;9.116;2022-07-23T03:51:02;21.30;99.90
65536;DHT22;52145;49.342;9.116;2022-07-23T03:53:28;21.20;99.90
65536;DHT22;52145;49.342;9.116;2022-07-23T03:55:53;21.20;99.90
65536;DHT22;52145;49.342;9.116;2022-07-23T03:58:19;21.20;99.90
65536;DHT22;52145;49.342;9.116;2022-07-23T04:00:44;21.10;99.90
65536;DHT22;52145;49.342;9.116;2022-07-23T04:03:10;21.20;99.90
65536;DHT22;52145;49.342;9.116;2022-07-23T04:05:35;21.20;99.90
65536;DHT22;52145;49.342;9.116;2022-07-23T04:08:01;21.20;99.90
65536;DHT22;52145;49.342;9.116;2022-07-23T04:10:27;21.20;99.90
65536;DHT22;52145;49.342;9.116;2022-07-23T04:12:52;21.20;99.90
65536;DHT22;52145;49.342;9.116;2022-07-23T04:15:18;21.20;99.90
65536;DHT22;52145;49.342;9.116;2022-07-23T04:17:43;21.30;99.90
65536;DHT22;52145;49.342;9.116;2022-07-23T04:20:11;21.30;99.90
65536;DHT22;52145;49.342;9.116;2022-07-23T04:22:36;21.30;99.90
65536;DHT22;52145;49.342;9.116;2022-07-23T04:25:02;21.40;99.90
65536;DHT22;52145;49.342;9.116;2022-07-23T04:27:28;21.50;99.90
65536;DHT22;52145;49.342;9.116;2022-07-23T04:29:53;21.50;99.90
65536;DHT22;52145;49.342;9.116;2022-07-23T04:32:19;21.60;99.90
65536;DHT22;52145;49.342;9.116;2022-07-23T04:34:44;21.70;99.90
65536;DHT22;52145;49.342;9.116;2022-07-23T04:37:10;21.80;99.90
65536;DHT22;52145;49.342;9.116;2022-07-23T04:39:36;21.90;99.90
65536;DHT22;52145;49.342;9.116;2022-07-23T04:42:01;21.90;99.90
65536;DHT22;52145;49.342;9.116;2022-07-23T04:44:27;21.90;99.90
65536;DHT22;52145;49.342;9.116;2022-07-23T04:46:52;21.80;99.90
65536;DHT22;52145;49.342;9.116;2022-07-23T04:49:18;21.90;99.90
65536;DHT22;52145;49.342;9.116;2022-07-23T04:51:43;21.90;99.90
65536;DHT22;52145;49.342;9.116;2022-07-23T04:54:09;21.80;99.90
65536;DHT22;52145;49.342;9.116;2022-07-23T04:56:34;21.80;99.90
65536;DHT22;52145;49.342;9.116;2022-07-23T04:59:00;21.70;99.90
65536;DHT22;52145;49.342;9.116;2022-07-23T05:01:26;21.80;99.90
65536;DHT22;52145;49.342;9.116;2022-07-23T05:03:51;21.70;99.90
65536;DHT22;52145;49.342;9.116;2022-07-23T05:06:17;21.80;99.90
65536;DHT22;52145;49.342;9.116;2022-07-23T05:08:42;21.70;99.90
65536;DHT22;52145;49.342;9.116;2022-07-23T05:11:08;21.70;99.90
65536;DHT22;52145;49.342;9.116;2022-07-23T05:13:33;21.70;99.90
65536;DHT22;52145;49.342;9.116;2022-07-23T05:15:59;21.70;99.90
65536;DHT22;52145;49.342;9.116;2022-07-23T05:18:25;21.80;99.90
65536;DHT22;52145;49.342;9.116;2022-07-23T05:20:50;21.80;99.90
65536;DHT22;52145;49.342;9.116;2022-07-23T05:23:16;21.70;99.90
65536;DHT22;52145;49.342;9.116;2022-07-23T05:25:41;21.70;99.90
65536;DHT22;52145;49.342;9.116;2022-07-23T05:28:07;21.80;99.90
65536;DHT22;52145;49.342;9.116;2022-07-23T05:30:32;21.90;99.90
65536;DHT22;52145;49.342;9.116;2022-07-23T05:32:58;21.80;99.90
65536;DHT22;52145;49.342;9.116;2022-07-23T05:35:24;22.00;99.90
65536;DHT22;52145;49.342;9.116;2022-07-23T05:37:49;22.00;99.90
65536;DHT22;52145;49.342;9.116;2022-07-23T05:40:18;22.10;99.90
65536;DHT22;52145;49.342;9.116;2022-07-23T05:42:43;22.10;99.90
65536;DHT22;52145;49.342;9.116;2022-07-23T05:45:09;22.10;99.90
65536;DHT22;52145;49.342;9.116;2022-07-23T05:47:45;22.00;99.90
65536;DHT22;52145;49.342;9.116;2022-07-23T05:50:11;22.00;99.90
65536;DHT22;52145;49.342;9.116;2022-07-23T05:52:38;21.90;99.90
65536;DHT22;52145;49.342;9.116;2022-07-23T05:55:05;21.80;99.90
65536;DHT22;52145;49.342;9.116;2022-07-23T05:57:30;21.70;99.90
65536;DHT22;52145;49.342;9.116;2022-07-23T05:59:56;21.50;99.90
65536;DHT22;52145;49.342;9.116;2022-07-23T06:02:22;21.50;99.90
65536;DHT22;52145;49.342;9.116;2022-07-23T06:04:47;21.60;99.90
65536;DHT22;52145;49.342;9.116;2022-07-23T06:07:13;21.50;99.90
65536;DHT22;52145;49.342;9.116;2022-07-23T06:09:38;21.40;99.90
65536;DHT22;52145;49.342;9.116;2022-07-23T06:12:04;21.30;99.90
65536;DHT22;52145;49.342;9.116;2022-07-23T06:14:30;21.40;99.90
65536;DHT22;52145;49.342;9.116;2022-07-23T06:16:55;21.60;99.90
65536;DHT22;52145;49.342;9.116;2022-07-23T06:19:21;21.70;99.90
65536;DHT22;52145;49.342;9.116;2022-07-23T06:21:47;21.90;99.90
65536;DHT22;52145;49.342;9.116;2022-07-23T06:24:12;22.00;99.90
65536;DHT22;52145;49.342;9.116;2022-07-23T06:26:38;22.20;99.90
65536;DHT22;52145;49.342;9.116;2022-07-23T06:29:03;22.30;99.90
65536;DHT22;52145;49.342;9.116;2022-07-23T06:31:29;22.40;99.90
65536;DHT22;52145;49.342;9.116;2022-07-23T06:33:54;22.50;99.90
65536;DHT22;52145;49.342;9.116;2022-07-23T06:36:20;22.70;99.90
65536;DHT22;52145;49.342;9.116;2022-07-23T06:38:46;22.60;99.90
65536;DHT22;52145;49.342;9.116;2022-07-23T06:41:11;22.80;99.90
65536;DHT22;52145;49.342;9.116;2022-07-23T06:43:37;23.10;99.90
65536;DHT22;52145;49.342;9.116;2022-07-23T06:46:03;23.40;99.90
65536;DHT22;52145;49.342;9.116;2022-07-23T06:48:28;23.60;99.90
65536;DHT22;52145;49.342;9.116;2022-07-23T06:50:54;23.80;99.90
65536;DHT22;52145;49.342;9.116;2022-07-23T06:53:21;23.80;99.90
65536;DHT22;52145;49.342;9.116;2022-07-23T06:55:46;23.80;99.90
65536;DHT22;52145;49.342;9.116;2022-07-23T06:58:12;23.60;99.90
65536;DHT22;52145;49.342;9.116;2022-07-23T07:00:39;23.30;99.90
65536;DHT22;52145;49.342;9.116;2022-07-23T07:03:05;23.40;99.90
65536;DHT22;52145;49.342;9.116;2022-07-23T07:05:30;23.60;99.90
65536;DHT22;52145;49.342;9.116;2022-07-23T07:07:56;23.60;99.90
65536;DHT22;52145;49.342;9.116;2022-07-23T07:10:22;23.40;99.90
65536;DHT22;52145;49.342;9.116;2022-07-23T07:12:48;23.50;99.90
65536;DHT22;52145;49.342;9.116;2022-07-23T07:15:13;23.50;99.90
65536;DHT22;52145;49.342;9.116;2022-07-23T07:17:39;23.50;99.90
65536;DHT22;52145;49.342;9.116;2022-07-23T07:20:05;23.30;99.90
65536;DHT22;52145;49.342;9.116;2022-07-23T07:22:31;23.60;99.90
65536;DHT22;52145;49.342;9.116;2022-07-23T07:24:57;24.00;99.90
65536;DHT22;52145;49.342;9.116;2022-07-23T07:27:22;24.40;99.90
65536;DHT22;52145;49.342;9.116;2022-07-23T07:29:48;25.00;99.90
65536;DHT22;52145;49.342;9.116;2022-07-23T07:32:14;25.30;99.90
65536;DHT22;52145;49.342;9.116;2022-07-23T07:34:39;25.40;99.90
65536;DHT22;52145;49.342;9.116;2022-07-23T07:37:05;25.50;99.90
65536;DHT22;52145;49.342;9.116;2022-07-23T07:39:30;25.70;99.90
65536;DHT22;52145;49.342;9.116;2022-07-23T07:41:56;26.00;99.90
65536;DHT22;52145;49.342;9.116;2022-07-23T07:44:22;26.10;99.90
65536;DHT22;52145;49.342;9.116;2022-07-23T07:46:47;26.00;99.90
65536;DHT22;52145;49.342;9.116;2022-07-23T07:49:13;25.70;99.90
65536;DHT22;52145;49.342;9.116;2022-07-23T07:51:38;25.60;99.90
65536;DHT22;52145;49.342;9.116;2022-07-23T07:54:04;25.50;99.90
65536;DHT22;52145;49.342;9.116;2022-07-23T07:56:29;25.60;99.90
65536;DHT22;52145;49.342;9.116;2022-07-23T07:58:55;25.60;99.90
65536;DHT22;52145;49.342;9.116;2022-07-23T08:01:21;25.60;99.90
65536;DHT22;52145;49.342;9.116;2022-07-23T08:03:47;25.30;99.90
65536;DHT22;52145;49.342;9.116;2022-07-23T08:06:12;25.50;99.90
65536;DHT22;52145;49.342;9.116;2022-07-23T08:08:38;25.50;99.90
65536;DHT22;52145;49.342;9.116;2022-07-23T08:11:04;25.70;99.90
65536;DHT22;52145;49.342;9.116;2022-07-23T08:13:29;26.00;99.90
65536;DHT22;52145;49.342;9.116;2022-07-23T08:15:55;26.40;99.90
65536;DHT22;52145;49.342;9.116;2022-07-23T08:18:20;26.80;99.90
65536;DHT22;52145;49.342;9.116;2022-07-23T08:20:46;26.80;99.90
65536;DHT22;52145;49.342;9.116;2022-07-23T08:23:12;26.50;99.90
65536;DHT22;52145;49.342;9.116;2022-07-23T08:25:40;26.80;99.90
65536;DHT22;52145;49.342;9.116;2022-07-23T08:28:08;27.30;99.90
65536;DHT22;52145;49.342;9.116;2022-07-23T08:30:35;27.40;99.90
65536;DHT22;52145;49.342;9.116;2022-07-23T08:33:09;27.20;99.90
65536;DHT22;52145;49.342;9.116;2022-07-23T08:35:47;27.20;99.90
65536;DHT22;52145;49.342;9.116;2022-07-23T08:38:15;27.30;99.90
65536;DHT22;52145;49.342;9.116;2022-07-23T08:40:43;27.40;99.90
65536;DHT22;52145;49.342;9.116;2022-07-23T08:43:12;27.60;99.90
65536;DHT22;52145;49.342;9.116;2022-07-23T08:45:43;27.70;99.90
65536;DHT22;52145;49.342;9.116;2022-07-23T08:48:16;27.60;99.90
65536;DHT22;52145;49.342;9.116;2022-07-23T08:50:50;27.30;99.90
65536;DHT22;52145;49.342;9.116;2022-07-23T08:53:17;26.80;99.90
65536;DHT22;52145;49.342;9.116;2022-07-23T08:55:52;26.60;99.90
65536;DHT22;52145;49.342;9.116;2022-07-23T08:58:19;26.70;99.90
65536;DHT22;52145;49.342;9.116;2022-07-23T09:00:45;27.00;99.90
65536;DHT22;52145;49.342;9.116;2022-07-23T09:03:17;27.50;99.90
65536;DHT22;52145;49.342;9.116;2022-07-23T09:05:43;27.90;99.90
65536;DHT22;52145;49.342;9.116;2022-07-23T09:10:55;28.00;99.90
65536;DHT22;52145;49.342;9.116;2022-07-23T09:13:40;28.20;99.90
65536;DHT22;52145;49.342;9.116;2022-07-23T09:16:15;28.50;99.90
65536;DHT22;52145;49.342;9.116;2022-07-23T09:18:47;28.70;99.90
65536;DHT22;52145;49.342;9.116;2022-07-23T09:23:52;28.80;99.90
65536;DHT22;52145;49.342;9.116;2022-07-23T09:26:24;29.30;99.90
65536;DHT22;52145;49.342;9.116;2022-07-23T09:31:27;29.10;99.90
65536;DHT22;52145;49.342;9.116;2022-07-23T09:34:07;29.10;99.90
65536;DHT22;52145;49.342;9.116;2022-07-23T09:36:33;29.30;99.90
65536;DHT22;52145;49.342;9.116;2022-07-23T09:38:59;29.50;99.90
65536;DHT22;52145;49.342;9.116;2022-07-23T09:41:24;30.00;99.90
65536;DHT22;52145;49.342;9.116;2022-07-23T09:44:07;30.00;99.90
65536;DHT22;52145;49.342;9.116;2022-07-23T09:46:32;30.20;99.90
65536;DHT22;52145;49.342;9.116;2022-07-23T09:48:58;29.90;99.90
65536;DHT22;52145;49.342;9.116;2022-07-23T09:51:44;29.90;99.90
65536;DHT22;52145;49.342;9.116;2022-07-23T09:57:10;30.10;99.70
65536;DHT22;52145;49.342;9.116;2022-07-23T09:59:43;29.80;99.60
65536;DHT22;52145;49.342;9.116;2022-07-23T10:02:11;29.00;99.50
65536;DHT22;52145;49.342;9.116;2022-07-23T10:04:37;29.00;99.90
65536;DHT22;52145;49.342;9.116;2022-07-23T10:07:05;29.40;99.90
65536;DHT22;52145;49.342;9.116;2022-07-23T10:09:40;28.40;99.50
65536;DHT22;52145;49.342;9.116;2022-07-23T10:12:13;28.10;99.90
65536;DHT22;52145;49.342;9.116;2022-07-23T10:14:58;28.30;99.90
65536;DHT22;52145;49.342;9.116;2022-07-23T10:17:25;28.30;99.90
65536;DHT22;52145;49.342;9.116;2022-07-23T10:19:51;28.60;99.50
65536;DHT22;52145;49.342;9.116;2022-07-23T10:22:31;28.90;99.20
65536;DHT22;52145;49.342;9.116;2022-07-23T10:30:07;28.40;95.80
65536;DHT22;52145;49.342;9.116;2022-07-23T10:35:38;27.90;98.20
65536;DHT22;52145;49.342;9.116;2022-07-23T10:43:26;28.70;97.20
65536;DHT22;52145;49.342;9.116;2022-07-23T10:45:53;29.20;97.10
65536;DHT22;52145;49.342;9.116;2022-07-23T10:48:24;30.30;97.70
65536;DHT22;52145;49.342;9.116;2022-07-23T10:56:50;29.00;95.60
65536;DHT22;52145;49.342;9.116;2022-07-23T10:59:16;29.50;94.80
65536;DHT22;52145;49.342;9.116;2022-07-23T11:01:42;29.90;96.00
65536;DHT22;52145;49.342;9.116;2022-07-23T11:04:07;29.90;94.20
65536;DHT22;52145;49.342;9.116;2022-07-23T11:09:27;29.40;95.10
65536;DHT22;52145;49.342;9.116;2022-07-23T11:18:00;31.90;91.80
65536;DHT22;52145;49.342;9.116;2022-07-23T11:20:26;32.30;91.30
65536;DHT22;52145;49.342;9.116;2022-07-23T11:22:56;32.60;90.60
65536;DHT22;52145;49.342;9.116;2022-07-23T11:27:50;31.80;91.00
65536;DHT22;52145;49.342;9.116;2022-07-23T11:35:44;31.40;90.00
65536;DHT22;52145;49.342;9.116;2022-07-23T11:38:21;31.70;90.50
65536;DHT22;52145;49.342;9.116;2022-07-23T11:40:52;32.50;88.70
65536;DHT22;52145;49.342;9.116;2022-07-23T11:43:18;32.70;88.80
65536;DHT22;52145;49.342;9.116;2022-07-23T11:45:47;33.00;87.40
65536;DHT22;52145;49.342;9.116;2022-07-23T11:48:18;33.30;87.10
65536;DHT22;52145;49.342;9.116;2022-07-23T11:50:44;33.50;87.10
65536;DHT22;52145;49.342;9.116;2022-07-23T11:53:10;32.80;88.90
65536;DHT22;52145;49.342;9.116;2022-07-23T11:55:36;34.10;87.20
65536;DHT22;52145;49.342;9.116;2022-07-23T11:58:02;35.00;85.50
65536;DHT22;52145;49.342;9.116;2022-07-23T12:00:29;35.10;84.40
65536;DHT22;52145;49.342;9.116;2022-07-23T12:03:00;35.90;84.00
65536;DHT22;52145;49.342;9.116;2022-07-23T12:05:31;36.00;83.10
65536;DHT22;52145;49.342;9.116;2022-07-23T12:07:58;35.70;81.60
65536;DHT22;52145;49.342;9.116;2022-07-23T12:10:39;35.50;82.10
65536;DHT22;52145;49.342;9.116;2022-07-23T12:13:12;35.60;80.40
65536;DHT22;52145;49.342;9.116;2022-07-23T12:15:49;35.40;80.10
65536;DHT22;52145;49.342;9.116;2022-07-23T12:18:20;35.20;80.80
65536;DHT22;52145;49.342;9.116;2022-07-23T12:20:49;35.50;80.90
65536;DHT22;52145;49.342;9.116;2022-07-23T12:23:18;36.60;80.50
65536;DHT22;52145;49.342;9.116;2022-07-23T12:25:45;37.10;79.40
65536;DHT22;52145;49.342;9.116;2022-07-23T12:28:14;37.40;77.60
65536;DHT22;52145;49.342;9.116;2022-07-23T12:30:54;36.60;77.80
65536;DHT22;52145;49.342;9.116;2022-07-23T12:33:28;35.80;78.20
65536;DHT22;52145;49.342;9.116;2022-07-23T12:35:56;35.60;78.30
65536;DHT22;52145;49.342;9.116;2022-07-23T12:38:24;35.30;77.70
65536;DHT22;52145;49.342;9.116;2022-07-23T12:40:55;35.20;77.60
65536;DHT22;52145;49.342;9.116;2022-07-23T12:43:29;34.90;78.90
65536;DHT22;52145;49.342;9.116;2022-07-23T12:45:56;34.60;77.60
65536;DHT22;52145;49.342;9.116;2022-07-23T12:48:27;35.30;79.40
65536;DHT22;52145;49.342;9.116;2022-07-23T12:51:01;36.90;77.10
65536;DHT22;52145;49.342;9.116;2022-07-23T12:53:29;37.00;75.10
65536;DHT22;52145;49.342;9.116;2022-07-23T12:56:14;37.90;73.90
65536;DHT22;52145;49.342;9.116;2022-07-23T12:58:44;37.50;73.80
65536;DHT22;52145;49.342;9.116;2022-07-23T13:04:15;37.50;73.50
65536;DHT22;52145;49.342;9.116;2022-07-23T13:09:22;38.50;72.40
65536;DHT22;52145;49.342;9.116;2022-07-23T13:11:49;39.50;71.00
65536;DHT22;52145;49.342;9.116;2022-07-23T13:14:17;38.60;69.70
65536;DHT22;52145;49.342;9.116;2022-07-23T13:16:43;36.60;71.90
65536;DHT22;52145;49.342;9.116;2022-07-23T13:19:10;35.90;72.00
65536;DHT22;52145;49.342;9.116;2022-07-23T13:21:36;36.10;74.10
65536;DHT22;52145;49.342;9.116;2022-07-23T13:24:01;37.30;70.80
65536;DHT22;52145;49.342;9.116;2022-07-23T13:26:27;36.80;71.00
65536;DHT22;52145;49.342;9.116;2022-07-23T13:28:54;37.60;71.20
65536;DHT22;52145;49.342;9.116;2022-07-23T13:31:19;39.10;68.00
65536;DHT22;52145;49.342;9.116;2022-07-23T13:33:45;39.20;68.00
65536;DHT22;52145;49.342;9.116;2022-07-23T13:36:11;39.20;67.20
65536;DHT22;52145;49.342;9.116;2022-07-23T13:38:37;38.10;66.60
65536;DHT22;52145;49.342;9.116;2022-07-23T13:41:02;37.80;67.10
65536;DHT22;52145;49.342;9.116;2022-07-23T13:43:28;36.40;67.80
65536;DHT22;52145;49.342;9.116;2022-07-23T13:45:55;35.40;70.40
65536;DHT22;52145;49.342;9.116;2022-07-23T13:48:21;35.10;69.40
65536;DHT22;52145;49.342;9.116;2022-07-23T13:50:48;34.70;70.80
65536;DHT22;52145;49.342;9.116;2022-07-23T13:53:17;35.70;70.20
65536;DHT22;52145;49.342;9.116;2022-07-23T13:55:43;35.90;71.70
65536;DHT22;52145;49.342;9.116;2022-07-23T13:58:09;36.10;72.10
65536;DHT22;52145;49.342;9.116;2022-07-23T14:00:37;36.20;71.50
65536;DHT22;52145;49.342;9.116;2022-07-23T14:03:03;35.70;72.80
65536;DHT22;52145;49.342;9.116;2022-07-23T14:05:29;35.20;73.10
65536;DHT22;52145;49.342;9.116;2022-07-23T14:07:55;35.10;73.80
65536;DHT22;52145;49.342;9.116;2022-07-23T14:10:22;35.80;72.50
65536;DHT22;52145;49.342;9.116;2022-07-23T14:12:49;36.50;73.30
65536;DHT22;52145;49.342;9.116;2022-07-23T14:15:16;37.10;72.40
65536;DHT22;52145;49.342;9.116;2022-07-23T14:17:43;36.70;70.60
65536;DHT22;52145;49.342;9.116;2022-07-23T14:20:10;35.80;72.80
65536;DHT22;52145;49.342;9.116;2022-07-23T14:22:36;35.00;72.30
65536;DHT22;52145;49.342;9.116;2022-07-23T14:25:03;35.10;73.40
65536;DHT22;52145;49.342;9.116;2022-07-23T14:27:29;35.00;72.90
65536;DHT22;52145;49.342;9.116;2022-07-23T14:29:55;34.50;73.80
65536;DHT22;52145;49.342;9.116;2022-07-23T14:32:20;34.50;74.00
65536;DHT22;52145;49.342;9.116;2022-07-23T14:34:47;34.30;72.70
65536;DHT22;52145;49.342;9.116;2022-07-23T14:37:12;34.50;73.60
65536;DHT22;52145;49.342;9.116;2022-07-23T14:39:39;34.30;74.10
65536;DHT22;52145;49.342;9.116;2022-07-23T14:42:06;34.00;74.60
65536;DHT22;52145;49.342;9.116;2022-07-23T14:44:31;34.20;74.80
65536;DHT22;52145;49.342;9.116;2022-07-23T14:46:57;34.20;74.00
65536;DHT22;52145;49.342;9.116;2022-07-23T14:49:23;34.00;74.80
65536;DHT22;52145;49.342;9.116;2022-07-23T14:51:48;33.80;74.20
65536;DHT22;52145;49.342;9.116;2022-07-23T14:54:14;34.20;72.40
65536;DHT22;52145;49.342;9.116;2022-07-23T14:56:41;34.40;73.00
65536;DHT22;52145;49.342;9.116;2022-07-23T14:59:07;34.60;71.70
65536;DHT22;52145;49.342;9.116;2022-07-23T15:01:33;34.30;72.90
65536;DHT22;52145;49.342;9.116;2022-07-23T15:03:59;33.70;73.30
65536;DHT22;52145;49.342;9.116;2022-07-23T15:06:25;33.30;73.90
65536;DHT22;52145;49.342;9.116;2022-07-23T15:08:51;33.50;74.20
65536;DHT22;52145;49.342;9.116;2022-07-23T15:11:17;33.70;73.90
65536;DHT22;52145;49.342;9.116;2022-07-23T15:13:42;34.00;72.30
65536;DHT22;52145;49.342;9.116;2022-07-23T15:16:08;34.50;73.40
65536;DHT22;52145;49.342;9.116;2022-07-23T15:18:34;35.00;70.90
65536;DHT22;52145;49.342;9.116;2022-07-23T15:20:59;35.60;70.30
65536;DHT22;52145;49.342;9.116;2022-07-23T15:23:26;36.00;68.90
65536;DHT22;52145;49.342;9.116;2022-07-23T15:25:54;35.00;69.80
65536;DHT22;52145;49.342;9.116;2022-07-23T15:28:20;33.90;71.10
65536;DHT22;52145;49.342;9.116;2022-07-23T15:30:46;33.20;71.80
65536;DHT22;52145;49.342;9.116;2022-07-23T15:33:11;33.00;74.20
65536;DHT22;52145;49.342;9.116;2022-07-23T15:35:37;32.80;73.60
65536;DHT22;52145;49.342;9.116;2022-07-23T15:38:03;33.20;74.50
65536;DHT22;52145;49.342;9.116;2022-07-23T15:40:28;34.30;73.40
65536;DHT22;52145;49.342;9.116;2022-07-23T15:42:54;35.80;71.20
65536;DHT22;52145;49.342;9.116;2022-07-23T15:45:20;37.90;69.60
65536;DHT22;52145;49.342;9.116;2022-07-23T15:47:47;39.40;67.00
65536;DHT22;52145;49.342;9.116;2022-07-23T15:50:14;40.10;67.10
65536;DHT22;52145;49.342;9.116;2022-07-23T15:52:40;40.70;66.10
65536;DHT22;52145;49.342;9.116;2022-07-23T15:55:06;41.10;66.10
65536;DHT22;52145;49.342;9.116;2022-07-23T15:57:33;40.90;64.20
65536;DHT22;52145;49.342;9.116;2022-07-23T15:59:59;40.00;65.80
65536;DHT22;52145;49.342;9.116;2022-07-23T16:02:25;40.00;63.70
65536;DHT22;52145;49.342;9.116;2022-07-23T16:04:50;40.20;65.70
65536;DHT22;52145;49.342;9.116;2022-07-23T16:07:17;40.50;65.00
65536;DHT22;52145;49.342;9.116;2022-07-23T16:09:43;39.50;64.50
65536;DHT22;52145;49.342;9.116;2022-07-23T16:12:09;39.80;64.90
65536;DHT22;52145;49.342;9.116;2022-07-23T16:14:35;39.80;64.80
65536;DHT22;52145;49.342;9.116;2022-07-23T16:17:00;40.10;65.30
65536;DHT22;52145;49.342;9.116;2022-07-23T16:19:26;40.10;64.70